sensor_id;sensor_type;location;lat;lon;timestamp;temperature;humidity
66257;DHT22;53049;43.446;3.698;2023-04-29T00:01:04;16.10;1.00
66257;DHT22;53049;43.446;3.698;2023-04-29T00:03:30;16.10;1.00
66257;DHT22;53049;43.446;3.698;2023-04-29T00:05:57;16.10;1.00
66257;DHT22;53049;43.446;3.698;2023-04-29T00:08:24;16.10;1.00
66257;DHT22;53049;43.446;3.698;2023-04-29T00:10:49;16.10;1.00
66257;DHT22;53049;43.446;3.698;2023-04-29T00:13:15;16.00;1.00
66257;DHT22;53049;43.446;3.698;2023-04-29T00:15:42;16.00;1.00
66257;DHT22;53049;43.446;3.698;2023-04-29T00:18:08;16.00;1.00
66257;DHT22;53049;43.446;3.698;2023-04-29T00:20:34;16.00;1.00
66257;DHT22;53049;43.446;3.698;2023-04-29T00:22:59;16.00;1.00
66257;DHT22;53049;43.446;3.698;2023-04-29T00:25:25;16.00;1.00
66257;DHT22;53049;43.446;3.698;2023-04-29T00:27:51;16.00;1.00
66257;DHT22;53049;43.446;3.698;2023-04-29T00:30:17;16.00;1.00
66257;DHT22;53049;43.446;3.698;2023-04-29T00:32:42;16.00;1.00
66257;DHT22;53049;43.446;3.698;2023-04-29T00:35:09;16.00;1.00
66257;DHT22;53049;43.446;3.698;2023-04-29T00:37:35;16.00;1.00
66257;DHT22;53049;43.446;3.698;2023-04-29T00:40:02;16.00;1.00
66257;DHT22;53049;43.446;3.698;2023-04-29T00:42:28;16.00;1.00
66257;DHT22;53049;43.446;3.698;2023-04-29T00:44:57;16.00;1.00
66257;DHT22;53049;43.446;3.698;2023-04-29T00:47:22;16.00;1.00
66257;DHT22;53049;43.446;3.698;2023-04-29T00:49:48;16.00;1.00
66257;DHT22;53049;43.446;3.698;2023-04-29T00:52:14;16.00;1.00
66257;DHT22;53049;43.446;3.698;2023-04-29T00:54:41;16.00;1.00
66257;DHT22;53049;43.446;3.698;2023-04-29T00:57:07;16.00;1.00
66257;DHT22;53049;43.446;3.698;2023-04-29T00:59:33;16.00;1.00
66257;DHT22;53049;43.446;3.698;2023-04-29T01:02:00;16.00;1.00
66257;DHT22;53049;43.446;3.698;2023-04-29T01:04:26;16.00;1.00
66257;DHT22;53049;43.446;3.698;2023-04-29T01:15:22;16.00;1.00
66257;DHT22;53049;43.446;3.698;2023-04-29T01:18:09;15.90;1.00
66257;DHT22;53049;43.446;3.698;2023-04-29T01:20:37;15.90;1.00
66257;DHT22;53049;43.446;3.698;2023-04-29T01:23:03;15.90;1.00
66257;DHT22;53049;43.446;3.698;2023-04-29T01:25:29;15.90;1.00
66257;DHT22;53049;43.446;3.698;2023-04-29T01:30:49;15.90;1.00
66257;DHT22;53049;43.446;3.698;2023-04-29T01:33:58;15.90;1.00
66257;DHT22;53049;43.446;3.698;2023-04-29T01:39:34;15.90;1.00
66257;DHT22;53049;43.446;3.698;2023-04-29T01:42:24;15.90;1.00
66257;DHT22;53049;43.446;3.698;2023-04-29T01:44:54;15.90;1.00
66257;DHT22;53049;43.446;3.698;2023-04-29T01:47:21;15.90;1.00
66257;DHT22;53049;43.446;3.698;2023-04-29T01:49:48;15.90;1.00
66257;DHT22;53049;43.446;3.698;2023-04-29T01:52:14;15.80;1.00
66257;DHT22;53049;43.446;3.698;2023-04-29T01:54:40;15.80;1.00
66257;DHT22;53049;43.446;3.698;2023-04-29T01:57:05;15.80;1.00
66257;DHT22;53049;43.446;3.698;2023-04-29T01:59:31;15.80;1.00
66257;DHT22;53049;43.446;3.698;2023-04-29T02:01:56;15.80;1.00
66257;DHT22;53049;43.446;3.698;2023-04-29T02:04:23;15.80;1.00
66257;DHT22;53049;43.446;3.698;2023-04-29T02:06:50;15.80;1.00
66257;DHT22;53049;43.446;3.698;2023-04-29T02:09:17;15.80;1.00
66257;DHT22;53049;43.446;3.698;2023-04-29T02:11:42;15.80;1.00
66257;DHT22;53049;43.446;3.698;2023-04-29T02:14:08;15.80;1.00
66257;DHT22;53049;43.446;3.698;2023-04-29T02:16:33;15.80;1.00
66257;DHT22;53049;43.446;3.698;2023-04-29T02:18:59;15.80;1.00
66257;DHT22;53049;43.446;3.698;2023-04-29T02:21:25;15.80;1.00
66257;DHT22;53049;43.446;3.698;2023-04-29T02:23:51;15.80;1.00
66257;DHT22;53049;43.446;3.698;2023-04-29T02:26:18;15.80;1.00
66257;DHT22;53049;43.446;3.698;2023-04-29T02:28:44;15.80;1.00
66257;DHT22;53049;43.446;3.698;2023-04-29T02:31:10;15.70;1.00
66257;DHT22;53049;43.446;3.698;2023-04-29T02:33:37;15.70;1.00
66257;DHT22;53049;43.446;3.698;2023-04-29T02:36:03;15.60;1.00
66257;DHT22;53049;43.446;3.698;2023-04-29T02:38:28;15.60;1.00
66257;DHT22;53049;43.446;3.698;2023-04-29T02:40:54;15.50;1.00
66257;DHT22;53049;43.446;3.698;2023-04-29T02:43:19;15.40;1.00
66257;DHT22;53049;43.446;3.698;2023-04-29T02:45:45;15.40;1.00
66257;DHT22;53049;43.446;3.698;2023-04-29T02:48:11;15.40;1.00
66257;DHT22;53049;43.446;3.698;2023-04-29T02:50:37;15.30;1.00
66257;DHT22;53049;43.446;3.698;2023-04-29T02:53:03;15.40;1.00
66257;DHT22;53049;43.446;3.698;2023-04-29T02:55:28;15.30;1.00
66257;DHT22;53049;43.446;3.698;2023-04-29T02:57:54;15.30;1.00
66257;DHT22;53049;43.446;3.698;2023-04-29T03:00:20;15.20;1.00
66257;DHT22;53049;43.446;3.698;2023-04-29T03:02:46;15.20;1.00
66257;DHT22;53049;43.446;3.698;2023-04-29T03:05:11;15.20;1.00
66257;DHT22;53049;43.446;3.698;2023-04-29T03:07:37;15.20;1.00
66257;DHT22;53049;43.446;3.698;2023-04-29T03:10:03;15.10;1.00
66257;DHT22;53049;43.446;3.698;2023-04-29T03:12:29;15.10;1.00
66257;DHT22;53049;43.446;3.698;2023-04-29T03:14:55;15.10;1.00
66257;DHT22;53049;43.446;3.698;2023-04-29T03:17:21;15.10;1.00
66257;DHT22;53049;43.446;3.698;2023-04-29T03:19:46;15.10;1.00
66257;DHT22;53049;43.446;3.698;2023-04-29T03:22:12;15.00;1.00
66257;DHT22;53049;43.446;3.698;2023-04-29T03:24:38;15.00;1.00
66257;DHT22;53049;43.446;3.698;2023-04-29T03:27:04;15.00;1.00
66257;DHT22;53049;43.446;3.698;2023-04-29T03:29:30;14.90;1.00
66257;DHT22;53049;43.446;3.698;2023-04-29T03:31:56;15.00;1.00
66257;DHT22;53049;43.446;3.698;2023-04-29T03:34:23;15.00;1.00
66257;DHT22;53049;43.446;3.698;2023-04-29T03:36:49;15.00;1.00
66257;DHT22;53049;43.446;3.698;2023-04-29T03:39:16;15.00;1.00
66257;DHT22;53049;43.446;3.698;2023-04-29T03:41:42;15.00;1.00
66257;DHT22;53049;43.446;3.698;2023-04-29T03:44:08;15.00;1.00
66257;DHT22;53049;43.446;3.698;2023-04-29T03:46:33;15.00;1.00
66257;DHT22;53049;43.446;3.698;2023-04-29T03:48:59;14.90;1.00
66257;DHT22;53049;43.446;3.698;2023-04-29T03:51:25;14.90;1.00
66257;DHT22;53049;43.446;3.698;2023-04-29T03:53:53;14.80;1.00
66257;DHT22;53049;43.446;3.698;2023-04-29T03:56:20;14.80;1.00
66257;DHT22;53049;43.446;3.698;2023-04-29T03:58:47;14.90;1.00
66257;DHT22;53049;43.446;3.698;2023-04-29T04:01:13;14.80;1.00
66257;DHT22;53049;43.446;3.698;2023-04-29T04:03:39;14.90;1.00
66257;DHT22;53049;43.446;3.698;2023-04-29T04:06:07;14.80;1.00
66257;DHT22;53049;43.446;3.698;2023-04-29T04:08:33;14.80;1.00
66257;DHT22;53049;43.446;3.698;2023-04-29T04:10:58;14.80;1.00
66257;DHT22;53049;43.446;3.698;2023-04-29T04:13:28;14.80;1.00
66257;DHT22;53049;43.446;3.698;2023-04-29T04:15:53;14.80;1.00
66257;DHT22;53049;43.446;3.698;2023-04-29T04:18:19;14.80;1.00
66257;DHT22;53049;43.446;3.698;2023-04-29T04:20:45;14.90;1.00
66257;DHT22;53049;43.446;3.698;2023-04-29T04:23:11;14.90;1.00
66257;DHT22;53049;43.446;3.698;2023-04-29T04:25:37;14.90;1.00
66257;DHT22;53049;43.446;3.698;2023-04-29T04:28:03;14.80;1.00
66257;DHT22;53049;43.446;3.698;2023-04-29T04:30:28;14.80;1.00
66257;DHT22;53049;43.446;3.698;2023-04-29T04:32:54;14.80;1.00
66257;DHT22;53049;43.446;3.698;2023-04-29T04:35:19;14.80;1.00
66257;DHT22;53049;43.446;3.698;2023-04-29T04:37:45;14.80;1.00
66257;DHT22;53049;43.446;3.698;2023-04-29T04:40:11;14.80;1.00
66257;DHT22;53049;43.446;3.698;2023-04-29T04:42:38;14.70;1.00
66257;DHT22;53049;43.446;3.698;2023-04-29T04:45:04;14.80;1.00
66257;DHT22;53049;43.446;3.698;2023-04-29T04:47:30;14.80;1.00
66257;DHT22;53049;43.446;3.698;2023-04-29T04:49:56;14.80;1.00
66257;DHT22;53049;43.446;3.698;2023-04-29T04:52:21;14.80;1.00
66257;DHT22;53049;43.446;3.698;2023-04-29T04:54:47;14.80;1.00
66257;DHT22;53049;43.446;3.698;2023-04-29T04:57:13;14.80;1.00
66257;DHT22;53049;43.446;3.698;2023-04-29T04:59:38;14.80;1.00
66257;DHT22;53049;43.446;3.698;2023-04-29T05:02:04;14.80;1.00
66257;DHT22;53049;43.446;3.698;2023-04-29T05:04:30;14.90;1.00
66257;DHT22;53049;43.446;3.698;2023-04-29T05:06:55;14.90;1.00
66257;DHT22;53049;43.446;3.698;2023-04-29T05:09:21;14.90;1.00
66257;DHT22;53049;43.446;3.698;2023-04-29T05:11:47;14.90;1.00
66257;DHT22;53049;43.446;3.698;2023-04-29T05:14:12;15.00;1.00
66257;DHT22;53049;43.446;3.698;2023-04-29T05:16:38;15.00;1.00
66257;DHT22;53049;43.446;3.698;2023-04-29T05:19:04;15.00;1.00
66257;DHT22;53049;43.446;3.698;2023-04-29T05:21:29;15.00;1.00
66257;DHT22;53049;43.446;3.698;2023-04-29T05:23:55;15.10;1.00
66257;DHT22;53049;43.446;3.698;2023-04-29T05:26:22;15.20;1.00
66257;DHT22;53049;43.446;3.698;2023-04-29T05:28:47;15.20;1.00
66257;DHT22;53049;43.446;3.698;2023-04-29T05:31:13;15.30;1.00
66257;DHT22;53049;43.446;3.698;2023-04-29T05:33:38;15.30;1.00
66257;DHT22;53049;43.446;3.698;2023-04-29T05:36:05;15.40;1.00
66257;DHT22;53049;43.446;3.698;2023-04-29T05:38:31;15.40;1.00
66257;DHT22;53049;43.446;3.698;2023-04-29T05:40:57;15.40;1.00
66257;DHT22;53049;43.446;3.698;2023-04-29T05:43:23;15.40;1.00
66257;DHT22;53049;43.446;3.698;2023-04-29T05:45:48;15.50;1.00
66257;DHT22;53049;43.446;3.698;2023-04-29T05:48:14;15.50;1.00
66257;DHT22;53049;43.446;3.698;2023-04-29T05:50:40;15.50;1.00
66257;DHT22;53049;43.446;3.698;2023-04-29T05:53:06;15.50;1.00
66257;DHT22;53049;43.446;3.698;2023-04-29T05:55:32;15.50;1.00
66257;DHT22;53049;43.446;3.698;2023-04-29T05:57:57;15.60;1.00
66257;DHT22;53049;43.446;3.698;2023-04-29T06:00:23;15.70;1.00
66257;DHT22;53049;43.446;3.698;2023-04-29T06:02:49;15.70;1.00
66257;DHT22;53049;43.446;3.698;2023-04-29T06:05:14;15.70;1.00
66257;DHT22;53049;43.446;3.698;2023-04-29T06:07:41;15.70;1.00
66257;DHT22;53049;43.446;3.698;2023-04-29T06:10:07;15.70;1.00
66257;DHT22;53049;43.446;3.698;2023-04-29T06:12:33;15.70;1.00
66257;DHT22;53049;43.446;3.698;2023-04-29T06:14:59;15.70;1.00
66257;DHT22;53049;43.446;3.698;2023-04-29T06:17:26;15.80;1.00
66257;DHT22;53049;43.446;3.698;2023-04-29T06:19:54;15.80;1.00
66257;DHT22;53049;43.446;3.698;2023-04-29T06:22:20;15.80;1.00
66257;DHT22;53049;43.446;3.698;2023-04-29T06:24:46;15.90;1.00
66257;DHT22;53049;43.446;3.698;2023-04-29T06:27:16;15.90;1.00
66257;DHT22;53049;43.446;3.698;2023-04-29T06:29:42;15.90;1.00
66257;DHT22;53049;43.446;3.698;2023-04-29T06:32:07;16.00;1.00
66257;DHT22;53049;43.446;3.698;2023-04-29T06:34:33;16.10;1.00
66257;DHT22;53049;43.446;3.698;2023-04-29T06:36:59;16.10;1.00
66257;DHT22;53049;43.446;3.698;2023-04-29T06:39:24;16.20;1.00
66257;DHT22;53049;43.446;3.698;2023-04-29T06:41:50;16.30;1.00
66257;DHT22;53049;43.446;3.698;2023-04-29T06:44:16;16.40;1.00
66257;DHT22;53049;43.446;3.698;2023-04-29T06:46:43;16.30;1.00
66257;DHT22;53049;43.446;3.698;2023-04-29T06:49:09;16.40;1.00
66257;DHT22;53049;43.446;3.698;2023-04-29T06:51:36;16.50;1.00
66257;DHT22;53049;43.446;3.698;2023-04-29T06:54:02;16.60;1.00
66257;DHT22;53049;43.446;3.698;2023-04-29T06:56:28;16.60;1.00
66257;DHT22;53049;43.446;3.698;2023-04-29T06:58:54;16.70;1.00
66257;DHT22;53049;43.446;3.698;2023-04-29T07:01:20;16.70;1.00
66257;DHT22;53049;43.446;3.698;2023-04-29T07:03:45;16.70;1.00
66257;DHT22;53049;43.446;3.698;2023-04-29T07:06:11;16.70;1.00
66257;DHT22;53049;43.446;3.698;2023-04-29T07:08:37;16.70;1.00
66257;DHT22;53049;43.446;3.698;2023-04-29T07:11:03;16.70;1.00
66257;DHT22;53049;43.446;3.698;2023-04-29T07:13:28;16.70;1.00
66257;DHT22;53049;43.446;3.698;2023-04-29T07:15:54;16.60;1.00
66257;DHT22;53049;43.446;3.698;2023-04-29T07:18:21;16.60;1.00
66257;DHT22;53049;43.446;3.698;2023-04-29T07:20:46;16.60;1.00
66257;DHT22;53049;43.446;3.698;2023-04-29T07:23:13;16.70;1.00
66257;DHT22;53049;43.446;3.698;2023-04-29T07:25:39;16.70;1.00
66257;DHT22;53049;43.446;3.698;2023-04-29T07:28:05;16.90;1.00
66257;DHT22;53049;43.446;3.698;2023-04-29T07:30:32;17.00;1.00
66257;DHT22;53049;43.446;3.698;2023-04-29T07:32:58;17.20;1.00
66257;DHT22;53049;43.446;3.698;2023-04-29T07:35:24;17.40;1.00
66257;DHT22;53049;43.446;3.698;2023-04-29T07:37:50;18.00;1.00
66257;DHT22;53049;43.446;3.698;2023-04-29T07:40:16;19.20;1.00
66257;DHT22;53049;43.446;3.698;2023-04-29T07:42:42;18.70;1.00
66257;DHT22;53049;43.446;3.698;2023-04-29T07:45:08;18.80;1.00
66257;DHT22;53049;43.446;3.698;2023-04-29T07:47:34;19.80;1.00
66257;DHT22;53049;43.446;3.698;2023-04-29T07:49:59;21.90;1.00
66257;DHT22;53049;43.446;3.698;2023-04-29T07:52:25;21.80;1.00
66257;DHT22;53049;43.446;3.698;2023-04-29T07:54:51;21.40;1.00
66257;DHT22;53049;43.446;3.698;2023-04-29T07:57:17;22.40;1.00
66257;DHT22;53049;43.446;3.698;2023-04-29T07:59:43;21.50;1.00
66257;DHT22;53049;43.446;3.698;2023-04-29T08:02:08;22.50;1.00
66257;DHT22;53049;43.446;3.698;2023-04-29T08:04:38;22.00;1.00
66257;DHT22;53049;43.446;3.698;2023-04-29T08:07:05;22.50;1.00
66257;DHT22;53049;43.446;3.698;2023-04-29T08:09:31;24.80;1.00
66257;DHT22;53049;43.446;3.698;2023-04-29T08:11:56;26.60;1.00
66257;DHT22;53049;43.446;3.698;2023-04-29T08:14:22;28.20;1.00
66257;DHT22;53049;43.446;3.698;2023-04-29T08:16:48;29.10;1.00
66257;DHT22;53049;43.446;3.698;2023-04-29T08:19:13;27.80;1.00
66257;DHT22;53049;43.446;3.698;2023-04-29T08:21:39;31.50;1.00
66257;DHT22;53049;43.446;3.698;2023-04-29T08:24:05;32.10;1.00
66257;DHT22;53049;43.446;3.698;2023-04-29T08:26:31;32.40;1.00
66257;DHT22;53049;43.446;3.698;2023-04-29T08:28:57;28.80;1.00
66257;DHT22;53049;43.446;3.698;2023-04-29T08:31:22;26.40;1.00
66257;DHT22;53049;43.446;3.698;2023-04-29T08:33:48;25.50;1.00
66257;DHT22;53049;43.446;3.698;2023-04-29T08:36:14;24.80;1.00
66257;DHT22;53049;43.446;3.698;2023-04-29T08:38:40;25.10;1.00
66257;DHT22;53049;43.446;3.698;2023-04-29T08:41:09;24.30;1.00
66257;DHT22;53049;43.446;3.698;2023-04-29T08:43:37;24.10;1.00
66257;DHT22;53049;43.446;3.698;2023-04-29T08:46:04;24.00;1.00
66257;DHT22;53049;43.446;3.698;2023-04-29T08:48:31;23.70;1.00
66257;DHT22;53049;43.446;3.698;2023-04-29T08:50:57;24.00;1.00
66257;DHT22;53049;43.446;3.698;2023-04-29T08:53:23;24.40;1.00
66257;DHT22;53049;43.446;3.698;2023-04-29T08:55:50;24.50;1.00
66257;DHT22;53049;43.446;3.698;2023-04-29T08:58:16;24.70;1.00
66257;DHT22;53049;43.446;3.698;2023-04-29T09:00:43;25.10;1.00
66257;DHT22;53049;43.446;3.698;2023-04-29T09:05:45;25.40;1.00
66257;DHT22;53049;43.446;3.698;2023-04-29T09:08:15;24.70;1.00
66257;DHT22;53049;43.446;3.698;2023-04-29T09:10:41;24.90;1.00
66257;DHT22;53049;43.446;3.698;2023-04-29T09:13:07;25.30;1.00
66257;DHT22;53049;43.446;3.698;2023-04-29T09:15:36;25.40;1.00
66257;DHT22;53049;43.446;3.698;2023-04-29T09:18:04;25.40;1.00
66257;DHT22;53049;43.446;3.698;2023-04-29T09:20:30;25.30;1.00
66257;DHT22;53049;43.446;3.698;2023-04-29T09:23:01;25.60;1.00
66257;DHT22;53049;43.446;3.698;2023-04-29T09:25:30;25.90;1.00
66257;DHT22;53049;43.446;3.698;2023-04-29T09:27:56;26.20;1.00
66257;DHT22;53049;43.446;3.698;2023-04-29T09:30:22;25.90;1.00
66257;DHT22;53049;43.446;3.698;2023-04-29T09:33:07;24.80;1.00
66257;DHT22;53049;43.446;3.698;2023-04-29T09:35:34;24.20;1.00
66257;DHT22;53049;43.446;3.698;2023-04-29T09:38:13;23.60;1.00
66257;DHT22;53049;43.446;3.698;2023-04-29T09:40:42;23.20;1.00
66257;DHT22;53049;43.446;3.698;2023-04-29T09:43:16;22.80;1.00
66257;DHT22;53049;43.446;3.698;2023-04-29T09:45:47;22.60;1.00
66257;DHT22;53049;43.446;3.698;2023-04-29T09:48:14;22.70;1.00
66257;DHT22;53049;43.446;3.698;2023-04-29T09:50:41;22.80;1.00
66257;DHT22;53049;43.446;3.698;2023-04-29T09:53:09;23.20;1.00
66257;DHT22;53049;43.446;3.698;2023-04-29T09:58:33;23.60;1.00
66257;DHT22;53049;43.446;3.698;2023-04-29T10:01:03;24.10;1.00
66257;DHT22;53049;43.446;3.698;2023-04-29T10:03:32;24.80;1.00
66257;DHT22;53049;43.446;3.698;2023-04-29T10:05:59;25.50;1.00
66257;DHT22;53049;43.446;3.698;2023-04-29T10:08:26;26.10;1.00
66257;DHT22;53049;43.446;3.698;2023-04-29T10:10:54;26.20;1.00
66257;DHT22;53049;43.446;3.698;2023-04-29T10:13:25;26.00;1.00
66257;DHT22;53049;43.446;3.698;2023-04-29T10:16:02;25.90;1.00
66257;DHT22;53049;43.446;3.698;2023-04-29T10:18:36;26.40;1.00
66257;DHT22;53049;43.446;3.698;2023-04-29T10:21:02;26.40;1.00
66257;DHT22;53049;43.446;3.698;2023-04-29T10:23:32;26.40;1.00
66257;DHT22;53049;43.446;3.698;2023-04-29T10:26:00;25.80;1.00
66257;DHT22;53049;43.446;3.698;2023-04-29T10:28:30;25.30;1.00
66257;DHT22;53049;43.446;3.698;2023-04-29T10:31:00;25.10;1.00
66257;DHT22;53049;43.446;3.698;2023-04-29T10:33:30;25.00;1.00
66257;DHT22;53049;43.446;3.698;2023-04-29T10:35:57;25.10;1.00
66257;DHT22;53049;43.446;3.698;2023-04-29T10:38:35;25.10;1.00
66257;DHT22;53049;43.446;3.698;2023-04-29T10:41:09;25.10;1.00
66257;DHT22;53049;43.446;3.698;2023-04-29T10:43:38;25.00;1.00
66257;DHT22;53049;43.446;3.698;2023-04-29T10:46:21;24.70;1.00
66257;DHT22;53049;43.446;3.698;2023-04-29T10:48:54;24.50;1.00
66257;DHT22;53049;43.446;3.698;2023-04-29T10:51:34;24.20;1.00
66257;DHT22;53049;43.446;3.698;2023-04-29T10:54:12;23.80;1.00
66257;DHT22;53049;43.446;3.698;2023-04-29T10:56:39;23.40;1.00
66257;DHT22;53049;43.446;3.698;2023-04-29T10:59:07;23.30;1.00
66257;DHT22;53049;43.446;3.698;2023-04-29T11:01:48;23.20;1.00
66257;DHT22;53049;43.446;3.698;2023-04-29T11:04:14;23.20;1.00
66257;DHT22;53049;43.446;3.698;2023-04-29T11:06:43;23.10;1.00
66257;DHT22;53049;43.446;3.698;2023-04-29T11:09:28;23.00;1.00
66257;DHT22;53049;43.446;3.698;2023-04-29T11:11:59;22.90;1.00
66257;DHT22;53049;43.446;3.698;2023-04-29T11:17:03;22.80;1.00
66257;DHT22;53049;43.446;3.698;2023-04-29T11:19:35;22.70;1.00
66257;DHT22;53049;43.446;3.698;2023-04-29T11:27:34;22.70;1.00
66257;DHT22;53049;43.446;3.698;2023-04-29T11:30:02;22.70;1.00
66257;DHT22;53049;43.446;3.698;2023-04-29T11:32:37;22.70;1.00
66257;DHT22;53049;43.446;3.698;2023-04-29T11:35:16;22.80;1.00
66257;DHT22;53049;43.446;3.698;2023-04-29T11:37:45;22.80;1.00
66257;DHT22;53049;43.446;3.698;2023-04-29T11:40:12;22.80;1.00
66257;DHT22;53049;43.446;3.698;2023-04-29T11:42:44;22.70;1.00
66257;DHT22;53049;43.446;3.698;2023-04-29T11:45:10;22.60;1.00
66257;DHT22;53049;43.446;3.698;2023-04-29T11:47:36;22.60;1.00
66257;DHT22;53049;43.446;3.698;2023-04-29T11:50:04;22.50;1.00
66257;DHT22;53049;43.446;3.698;2023-04-29T11:52:30;22.50;1.00
66257;DHT22;53049;43.446;3.698;2023-04-29T11:54:57;22.30;1.00
66257;DHT22;53049;43.446;3.698;2023-04-29T11:57:24;22.10;1.00
66257;DHT22;53049;43.446;3.698;2023-04-29T11:59:50;21.90;1.00
66257;DHT22;53049;43.446;3.698;2023-04-29T12:02:16;21.90;1.00
66257;DHT22;53049;43.446;3.698;2023-04-29T12:04:45;21.80;1.00
66257;DHT22;53049;43.446;3.698;2023-04-29T12:07:14;21.40;1.00
66257;DHT22;53049;43.446;3.698;2023-04-29T12:09:42;21.30;1.00
66257;DHT22;53049;43.446;3.698;2023-04-29T12:12:08;21.10;1.00
66257;DHT22;53049;43.446;3.698;2023-04-29T12:14:33;21.20;1.00
66257;DHT22;53049;43.446;3.698;2023-04-29T12:16:59;21.30;1.00
66257;DHT22;53049;43.446;3.698;2023-04-29T12:19:26;21.50;1.00
66257;DHT22;53049;43.446;3.698;2023-04-29T12:21:52;21.70;1.00
66257;DHT22;53049;43.446;3.698;2023-04-29T12:24:19;21.90;1.00
66257;DHT22;53049;43.446;3.698;2023-04-29T12:26:45;22.00;1.00
66257;DHT22;53049;43.446;3.698;2023-04-29T12:29:12;22.20;1.00
66257;DHT22;53049;43.446;3.698;2023-04-29T12:31:38;22.30;1.00
66257;DHT22;53049;43.446;3.698;2023-04-29T12:34:04;22.30;1.00
66257;DHT22;53049;43.446;3.698;2023-04-29T12:36:30;22.20;1.00
66257;DHT22;53049;43.446;3.698;2023-04-29T12:38:57;22.20;1.00
66257;DHT22;53049;43.446;3.698;2023-04-29T12:41:40;22.30;1.00
66257;DHT22;53049;43.446;3.698;2023-04-29T12:44:06;22.20;1.00
66257;DHT22;53049;43.446;3.698;2023-04-29T12:46:39;22.20;1.00
66257;DHT22;53049;43.446;3.698;2023-04-29T12:49:06;22.20;1.00
66257;DHT22;53049;43.446;3.698;2023-04-29T12:51:33;22.20;1.00
66257;DHT22;53049;43.446;3.698;2023-04-29T12:54:00;22.40;1.00
66257;DHT22;53049;43.446;3.698;2023-04-29T12:56:31;22.40;1.00
66257;DHT22;53049;43.446;3.698;2023-04-29T12:59:07;22.50;1.00
66257;DHT22;53049;43.446;3.698;2023-04-29T13:01:34;22.50;1.00
66257;DHT22;53049;43.446;3.698;2023-04-29T13:04:00;22.60;1.00
66257;DHT22;53049;43.446;3.698;2023-04-29T13:06:26;22.60;1.00
66257;DHT22;53049;43.446;3.698;2023-04-29T13:08:51;22.60;1.00
66257;DHT22;53049;43.446;3.698;2023-04-29T13:11:17;22.80;1.00
66257;DHT22;53049;43.446;3.698;2023-04-29T13:13:42;22.80;1.00
66257;DHT22;53049;43.446;3.698;2023-04-29T13:16:08;22.90;1.00
66257;DHT22;53049;43.446;3.698;2023-04-29T13:18:34;23.00;1.00
66257;DHT22;53049;43.446;3.698;2023-04-29T13:21:00;23.00;1.00
66257;DHT22;53049;43.446;3.698;2023-04-29T13:23:26;23.00;1.00
66257;DHT22;53049;43.446;3.698;2023-04-29T13:25:52;23.10;1.00
66257;DHT22;53049;43.446;3.698;2023-04-29T13:28:17;23.20;1.00
66257;DHT22;53049;43.446;3.698;2023-04-29T13:30:43;23.10;1.00
66257;DHT22;53049;43.446;3.698;2023-04-29T13:33:09;23.20;1.00
66257;DHT22;53049;43.446;3.698;2023-04-29T13:35:35;23.30;1.00
66257;DHT22;53049;43.446;3.698;2023-04-29T13:38:02;23.30;1.00
66257;DHT22;53049;43.446;3.698;2023-04-29T13:40:28;23.30;1.00
66257;DHT22;53049;43.446;3.698;2023-04-29T13:42:54;23.20;1.00
66257;DHT22;53049;43.446;3.698;2023-04-29T13:45:20;23.20;1.00
66257;DHT22;53049;43.446;3.698;2023-04-29T13:47:45;23.30;1.00
66257;DHT22;53049;43.446;3.698;2023-04-29T13:50:11;23.40;1.00
66257;DHT22;53049;43.446;3.698;2023-04-29T13:52:37;23.40;1.00
66257;DHT22;53049;43.446;3.698;2023-04-29T13:55:03;23.40;1.00
66257;DHT22;53049;43.446;3.698;2023-04-29T13:57:29;23.50;1.00
66257;DHT22;53049;43.446;3.698;2023-04-29T13:59:55;23.50;1.00
66257;DHT22;53049;43.446;3.698;2023-04-29T14:02:21;23.60;1.00
66257;DHT22;53049;43.446;3.698;2023-04-29T14:04:46;23.70;1.00
66257;DHT22;53049;43.446;3.698;2023-04-29T14:07:12;23.80;1.00
66257;DHT22;53049;43.446;3.698;2023-04-29T14:09:38;23.80;1.00
66257;DHT22;53049;43.446;3.698;2023-04-29T14:12:04;23.70;1.00
66257;DHT22;53049;43.446;3.698;2023-04-29T14:14:30;23.70;1.00
66257;DHT22;53049;43.446;3.698;2023-04-29T14:16:56;23.70;1.00
66257;DHT22;53049;43.446;3.698;2023-04-29T14:19:22;23.50;1.00
66257;DHT22;53049;43.446;3.698;2023-04-29T14:21:48;23.50;1.00
66257;DHT22;53049;43.446;3.698;2023-04-29T14:24:14;23.70;1.00
66257;DHT22;53049;43.446;3.698;2023-04-29T14:26:40;23.80;1.00
66257;DHT22;53049;43.446;3.698;2023-04-29T14:29:06;23.70;1.00
66257;DHT22;53049;43.446;3.698;2023-04-29T14:31:35;23.70;1.00
66257;DHT22;53049;43.446;3.698;2023-04-29T14:34:02;23.60;1.00
66257;DHT22;53049;43.446;3.698;2023-04-29T14:36:29;23.60;1.00
66257;DHT22;53049;43.446;3.698;2023-04-29T14:38:57;23.50;1.00
66257;DHT22;53049;43.446;3.698;2023-04-29T14:41:23;23.40;1.00
66257;DHT22;53049;43.446;3.698;2023-04-29T14:43:48;23.50;1.00
66257;DHT22;53049;43.446;3.698;2023-04-29T14:46:14;23.40;1.00
66257;DHT22;53049;43.446;3.698;2023-04-29T14:48:40;23.50;1.00
66257;DHT22;53049;43.446;3.698;2023-04-29T14:51:07;23.50;1.00
66257;DHT22;53049;43.446;3.698;2023-04-29T14:53:33;23.50;1.00
66257;DHT22;53049;43.446;3.698;2023-04-29T14:55:58;23.40;1.00
66257;DHT22;53049;43.446;3.698;2023-04-29T14:58:24;23.30;1.00
66257;DHT22;53049;43.446;3.698;2023-04-29T15:00:50;23.10;1.00
66257;DHT22;53049;43.446;3.698;2023-04-29T15:03:17;23.00;1.00
66257;DHT22;53049;43.446;3.698;2023-04-29T15:05:42;22.80;1.00
66257;DHT22;53049;43.446;3.698;2023-04-29T15:08:09;22.70;1.00
66257;DHT22;53049;43.446;3.698;2023-04-29T15:10:34;22.60;1.00
66257;DHT22;53049;43.446;3.698;2023-04-29T15:13:00;22.70;1.00
66257;DHT22;53049;43.446;3.698;2023-04-29T15:15:26;22.80;1.00
66257;DHT22;53049;43.446;3.698;2023-04-29T15:17:52;22.90;1.00
66257;DHT22;53049;43.446;3.698;2023-04-29T15:20:17;23.00;1.00
66257;DHT22;53049;43.446;3.698;2023-04-29T15:22:43;23.00;1.00
66257;DHT22;53049;43.446;3.698;2023-04-29T15:25:09;23.00;1.00
66257;DHT22;53049;43.446;3.698;2023-04-29T15:27:36;23.00;1.00
66257;DHT22;53049;43.446;3.698;2023-04-29T15:30:05;23.00;1.00
66257;DHT22;53049;43.446;3.698;2023-04-29T15:32:31;23.00;1.00
66257;DHT22;53049;43.446;3.698;2023-04-29T15:35:01;23.00;1.00
66257;DHT22;53049;43.446;3.698;2023-04-29T15:37:28;22.90;1.00
66257;DHT22;53049;43.446;3.698;2023-04-29T15:39:56;22.90;1.00
66257;DHT22;53049;43.446;3.698;2023-04-29T15:42:23;22.90;1.00
66257;DHT22;53049;43.446;3.698;2023-04-29T15:44:48;23.00;1.00
66257;DHT22;53049;43.446;3.698;2023-04-29T15:47:14;23.00;1.00
66257;DHT22;53049;43.446;3.698;2023-04-29T15:49:41;22.90;1.00
66257;DHT22;53049;43.446;3.698;2023-04-29T15:52:07;22.90;1.00
66257;DHT22;53049;43.446;3.698;2023-04-29T15:54:32;22.90;1.00
66257;DHT22;53049;43.446;3.698;2023-04-29T15:56:58;22.90;1.00
66257;DHT22;53049;43.446;3.698;2023-04-29T15:59:24;23.00;1.00
66257;DHT22;53049;43.446;3.698;2023-04-29T16:01:50;22.90;1.00
66257;DHT22;53049;43.446;3.698;2023-04-29T16:04:16;22.80;1.00
66257;DHT22;53049;43.446;3.698;2023-04-29T16:06:41;22.80;1.00
66257;DHT22;53049;43.446;3.698;2023-04-29T16:09:07;22.70;1.00
66257;DHT22;53049;43.446;3.698;2023-04-29T16:11:33;22.70;1.00